createdAt,value
2017-02-28T00:00:59.396Z,923.4
2017-02-28T00:02:13.866Z,923.46
2017-02-28T00:03:28.316Z,923.45
2017-02-28T00:04:42.786Z,923.43
2017-02-28T00:05:57.233Z,923.41
2017-02-28T00:07:11.682Z,923.37
2017-02-28T00:08:26.154Z,923.36
2017-02-28T00:09:40.647Z,923.39
2017-02-28T00:10:55.132Z,923.4
2017-02-28T00:12:09.621Z,923.41
2017-02-28T00:13:23.423Z,923.43
2017-02-28T00:14:37.922Z,923.5
2017-02-28T00:15:51.780Z,923.52
2017-02-28T00:17:06.228Z,923.52
2017-02-28T00:18:20.677Z,923.57
2017-02-28T00:19:35.153Z,923.56
2017-02-28T00:20:49.599Z,923.56
2017-02-28T00:22:04.032Z,923.55
2017-02-28T00:23:17.838Z,923.63
2017-02-28T00:24:31.667Z,923.66
2017-02-28T00:25:45.478Z,923.7
2017-02-28T00:26:59.946Z,923.66
2017-02-28T00:28:14.397Z,923.75
2017-02-28T00:29:28.900Z,923.75
2017-02-28T00:30:43.353Z,923.75
2017-02-28T00:31:57.818Z,923.69
2017-02-28T00:33:12.273Z,923.83
2017-02-28T00:34:26.081Z,923.82
2017-02-28T00:35:40.546Z,923.84
2017-02-28T00:36:55.027Z,923.81
2017-02-28T00:38:09.490Z,923.85
2017-02-28T00:39:23.950Z,923.79
2017-02-28T00:40:37.804Z,923.81
2017-02-28T00:41:52.266Z,923.8
2017-02-28T00:43:06.098Z,923.85
2017-02-28T00:44:20.570Z,923.89
2017-02-28T00:45:34.398Z,923.89
2017-02-28T00:46:48.850Z,923.84
2017-02-28T00:48:03.296Z,923.9
2017-02-28T00:49:17.774Z,923.88
2017-02-28T00:50:31.592Z,923.85
2017-02-28T00:51:46.021Z,923.92
2017-02-28T00:53:00.471Z,923.93
2017-02-28T00:54:14.942Z,924.02
2017-02-28T00:55:29.427Z,923.98
2017-02-28T00:56:43.938Z,923.99
2017-02-28T00:57:58.393Z,923.97
2017-02-28T00:59:12.857Z,923.99
2017-02-28T01:00:26.669Z,924.01
2017-02-28T01:01:41.093Z,924
2017-02-28T01:02:55.570Z,924.07
2017-02-28T01:04:10.047Z,924.13
2017-02-28T01:05:23.870Z,924.12
2017-02-28T01:06:38.352Z,924.17
2017-02-28T01:07:52.769Z,924.16
2017-02-28T01:09:06.546Z,924.14
2017-02-28T01:10:21.008Z,924.13
2017-02-28T01:11:35.444Z,924.06
2017-02-28T01:12:49.894Z,924.09
2017-02-28T01:14:04.356Z,924.12
2017-02-28T01:15:18.859Z,924.14
2017-02-28T01:16:32.736Z,924.1
2017-02-28T01:17:47.213Z,924.16
2017-02-28T01:19:01.720Z,924.15
2017-02-28T01:20:16.187Z,924.22
2017-02-28T01:21:29.996Z,924.23
2017-02-28T01:22:44.439Z,924.21
2017-02-28T01:23:58.885Z,924.2
2017-02-28T01:25:12.702Z,924.18
2017-02-28T01:26:26.517Z,924.25
2017-02-28T01:27:40.967Z,924.26
2017-02-28T01:28:55.431Z,924.27
2017-02-28T01:30:09.873Z,924.24
2017-02-28T01:31:24.318Z,924.23
2017-02-28T01:32:38.802Z,924.19
2017-02-28T01:33:52.623Z,924.18
2017-02-28T01:35:07.074Z,924.14
2017-02-28T01:36:21.533Z,924.18
2017-02-28T01:37:36.000Z,924.14
2017-02-28T01:38:50.461Z,924.15
2017-02-28T01:40:04.954Z,924.1
2017-02-28T01:41:19.378Z,924.13
2017-02-28T01:42:33.187Z,924.13
2017-02-28T01:43:47.637Z,924.12
2017-02-28T01:45:02.128Z,924.06
2017-02-28T01:46:16.574Z,924.08
2017-02-28T01:47:29.781Z,924.05
2017-02-28T01:48:44.298Z,924.03
2017-02-28T01:49:58.779Z,924.06
2017-02-28T01:51:12.597Z,924.05
2017-02-28T01:52:27.071Z,924.12
2017-02-28T01:53:41.571Z,924.09
2017-02-28T01:54:56.014Z,924.12
2017-02-28T01:56:10.480Z,924.14
2017-02-28T01:57:24.966Z,924.14
2017-02-28T01:58:39.413Z,924.13
2017-02-28T01:59:53.911Z,924.12
2017-02-28T02:01:08.376Z,924.08
2017-02-28T02:02:22.873Z,924.06
2017-02-28T02:03:36.661Z,924
2017-02-28T02:05:03.857Z,923.91
2017-02-28T02:06:18.263Z,923.97
2017-02-28T02:07:32.010Z,923.92
2017-02-28T02:08:45.738Z,923.92
2017-02-28T02:10:00.217Z,923.9
2017-02-28T02:11:14.751Z,923.92
2017-02-28T02:12:28.587Z,923.89
2017-02-28T02:13:43.032Z,923.88
2017-02-28T02:14:57.545Z,923.91
2017-02-28T02:16:12.002Z,923.87
2017-02-28T02:17:26.468Z,923.85
2017-02-28T02:18:40.951Z,923.84
2017-02-28T02:19:55.451Z,923.8
2017-02-28T02:21:09.972Z,923.84
2017-02-28T02:22:24.467Z,923.87
2017-02-28T02:23:38.921Z,923.85
2017-02-28T02:24:53.404Z,923.82
2017-02-28T02:26:07.907Z,923.84
2017-02-28T02:27:23.366Z,923.84
2017-02-28T02:28:37.836Z,923.84
2017-02-28T02:29:52.284Z,923.88
2017-02-28T02:31:06.750Z,923.87
2017-02-28T02:32:20.643Z,923.87
2017-02-28T02:33:34.483Z,923.86
2017-02-28T02:34:48.943Z,923.88
2017-02-28T02:36:03.408Z,923.87
2017-02-28T02:37:17.850Z,923.87
2017-02-28T02:38:32.325Z,923.81
2017-02-28T02:39:46.785Z,923.8
2017-02-28T02:41:01.257Z,923.77
2017-02-28T02:42:15.735Z,923.75
2017-02-28T02:43:30.353Z,923.69
2017-02-28T02:44:44.131Z,923.72
2017-02-28T02:45:58.608Z,923.71
2017-02-28T02:47:12.559Z,923.67
2017-02-28T02:48:26.399Z,923.64
2017-02-28T02:49:39.677Z,923.63
2017-02-28T02:50:54.187Z,923.56
2017-02-28T02:52:08.022Z,923.57
2017-02-28T02:53:22.514Z,923.53
2017-02-28T02:54:36.359Z,923.5
2017-02-28T02:55:50.821Z,923.45
2017-02-28T02:57:05.311Z,923.38
2017-02-28T02:58:19.783Z,923.35
2017-02-28T02:59:32.940Z,923.44
2017-02-28T03:00:46.751Z,923.43
2017-02-28T03:02:01.237Z,923.43
2017-02-28T03:03:15.713Z,923.44
2017-02-28T03:04:30.233Z,923.46
2017-02-28T03:05:44.689Z,923.46
2017-02-28T03:06:59.145Z,923.48
2017-02-28T03:08:13.613Z,923.49
2017-02-28T03:09:27.401Z,923.46
2017-02-28T03:10:41.227Z,923.46
2017-02-28T03:11:55.728Z,923.43
2017-02-28T03:13:10.175Z,923.46
2017-02-28T03:14:24.631Z,923.44
2017-02-28T03:15:39.116Z,923.39
2017-02-28T03:16:53.580Z,923.42
2017-02-28T03:18:08.030Z,923.4
2017-02-28T03:19:22.486Z,923.35
2017-02-28T03:20:36.300Z,923.33
2017-02-28T03:21:50.772Z,923.28
2017-02-28T03:23:05.244Z,923.28
2017-02-28T03:24:19.709Z,923.27
2017-02-28T03:25:34.163Z,923.27
2017-02-28T03:26:48.607Z,923.27
2017-02-28T03:28:03.055Z,923.3
2017-02-28T03:29:16.867Z,923.28
2017-02-28T03:30:31.352Z,923.29
2017-02-28T03:31:45.821Z,923.33
2017-02-28T03:33:00.347Z,923.28
2017-02-28T03:34:14.820Z,923.32
2017-02-28T03:35:29.312Z,923.3
2017-02-28T03:36:43.770Z,923.28
2017-02-28T03:37:58.222Z,923.3
2017-02-28T03:39:12.744Z,923.27
2017-02-28T03:40:27.201Z,923.22
2017-02-28T03:41:41.036Z,923.22
2017-02-28T03:42:55.476Z,923.23
2017-02-28T03:44:09.941Z,923.18
2017-02-28T03:45:23.097Z,923.14
2017-02-28T03:46:36.942Z,923.13
2017-02-28T03:47:50.748Z,923.14
2017-02-28T03:49:05.195Z,923.08
2017-02-28T03:50:19.653Z,923.13
2017-02-28T03:51:32.796Z,923.11
2017-02-28T03:52:47.272Z,923.13
2017-02-28T03:54:01.725Z,923.08
2017-02-28T03:55:16.183Z,923.08
2017-02-28T03:56:30.648Z,923.07
2017-02-28T03:57:45.128Z,923.07
2017-02-28T03:58:59.582Z,923.1
2017-02-28T04:00:14.063Z,923.08
2017-02-28T04:01:28.509Z,923.06
2017-02-28T04:02:42.948Z,923.03
2017-02-28T04:03:57.427Z,922.99
2017-02-28T04:05:11.900Z,923.02
2017-02-28T04:06:25.745Z,923.02
2017-02-28T04:07:39.550Z,923.04
2017-02-28T04:08:54.003Z,923
2017-02-28T04:10:08.513Z,923.01
2017-02-28T04:11:22.990Z,923
2017-02-28T04:12:36.856Z,922.97
2017-02-28T04:13:51.321Z,923.03
2017-02-28T04:15:05.818Z,923.02
2017-02-28T04:16:20.322Z,923.01
2017-02-28T04:17:34.783Z,922.99
2017-02-28T04:18:48.619Z,923.02
2017-02-28T04:20:03.053Z,922.99
2017-02-28T04:21:16.857Z,922.98
2017-02-28T04:22:31.303Z,922.95
2017-02-28T04:23:45.778Z,922.89
2017-02-28T04:25:00.225Z,922.91
2017-02-28T04:26:14.688Z,922.91
2017-02-28T04:27:29.164Z,922.87
2017-02-28T04:28:43.620Z,922.85
2017-02-28T04:29:58.103Z,922.9
2017-02-28T04:31:12.599Z,922.84
2017-02-28T04:32:27.046Z,922.77
2017-02-28T04:33:41.480Z,922.8
2017-02-28T04:34:55.297Z,922.72
2017-02-28T04:36:09.802Z,922.7
2017-02-28T04:37:24.290Z,922.72
2017-02-28T04:38:38.750Z,922.73
2017-02-28T04:39:53.211Z,922.74
2017-02-28T04:41:07.677Z,922.75
2017-02-28T04:42:22.122Z,922.74
2017-02-28T04:43:36.589Z,922.64
2017-02-28T04:44:51.033Z,922.69
2017-02-28T04:46:05.510Z,922.62
2017-02-28T04:47:19.983Z,922.61
2017-02-28T04:48:34.410Z,922.58
2017-02-28T04:49:48.896Z,922.59
2017-02-28T04:51:03.391Z,922.61
2017-02-28T04:52:17.905Z,922.6
2017-02-28T04:53:32.394Z,922.63
2017-02-28T04:54:46.833Z,922.63
2017-02-28T04:56:01.307Z,922.64
2017-02-28T04:57:15.762Z,922.63
2017-02-28T04:58:29.572Z,922.65
2017-02-28T04:59:43.376Z,922.63
2017-02-28T05:00:57.811Z,922.57
2017-02-28T05:02:12.254Z,922.58
2017-02-28T05:03:26.707Z,922.53
2017-02-28T05:04:39.852Z,922.55
2017-02-28T05:05:54.301Z,922.55
2017-02-28T05:07:08.769Z,922.48
2017-02-28T05:08:23.236Z,922.55
2017-02-28T05:09:37.675Z,922.56
2017-02-28T05:10:52.159Z,922.51
2017-02-28T05:12:06.581Z,922.49
2017-02-28T05:13:21.066Z,922.54
2017-02-28T05:14:35.503Z,922.47
2017-02-28T05:15:49.998Z,922.51
2017-02-28T05:17:03.782Z,922.51
2017-02-28T05:18:16.985Z,922.5
2017-02-28T05:19:31.452Z,922.47
2017-02-28T05:20:45.869Z,922.44
2017-02-28T05:22:00.348Z,922.41
2017-02-28T05:23:14.197Z,922.42
2017-02-28T05:24:28.631Z,922.39
2017-02-28T05:25:43.141Z,922.38
2017-02-28T05:26:56.929Z,922.34
2017-02-28T05:28:11.374Z,922.32
2017-02-28T05:29:25.175Z,922.31
2017-02-28T05:30:39.646Z,922.31
2017-02-28T05:31:54.123Z,922.33
2017-02-28T05:33:08.563Z,922.32
2017-02-28T05:34:22.426Z,922.32
2017-02-28T05:35:36.900Z,922.29
2017-02-28T05:36:51.367Z,922.25
2017-02-28T05:38:05.828Z,922.24
2017-02-28T05:39:19.622Z,922.23
2017-02-28T05:40:34.054Z,922.19
2017-02-28T05:41:47.874Z,922.16
2017-02-28T05:43:02.346Z,922.16
2017-02-28T05:44:16.830Z,922.15
2017-02-28T05:45:31.294Z,922.13
2017-02-28T05:46:45.090Z,922.11
2017-02-28T05:47:59.534Z,922.11
2017-02-28T05:49:13.356Z,922.1
2017-02-28T05:50:27.139Z,922.09
2017-02-28T05:51:41.598Z,922.1
2017-02-28T05:52:56.085Z,922.07
2017-02-28T05:54:10.543Z,922.1
2017-02-28T05:55:25.021Z,922.12
2017-02-28T05:56:38.810Z,922.13
2017-02-28T05:57:53.250Z,922.11
2017-02-28T05:59:07.039Z,922.14
2017-02-28T06:00:20.836Z,922.14
2017-02-28T06:01:35.284Z,922.08
2017-02-28T06:02:49.755Z,922.06
2017-02-28T06:04:04.204Z,922.13
2017-02-28T06:05:18.662Z,922.08
2017-02-28T06:06:33.120Z,922.06
2017-02-28T06:07:47.578Z,922.1
2017-02-28T06:09:02.074Z,922.12
2017-02-28T06:10:16.565Z,922.16
2017-02-28T06:11:30.993Z,922.16
2017-02-28T06:12:45.429Z,922.16
2017-02-28T06:13:59.909Z,922.16
2017-02-28T06:15:13.722Z,922.11
2017-02-28T06:16:28.195Z,922.1
2017-02-28T06:17:42.625Z,922.04
2017-02-28T06:18:57.102Z,922.04
2017-02-28T06:20:11.574Z,922.08
2017-02-28T06:21:26.056Z,922.05
2017-02-28T06:22:40.500Z,922.08
2017-02-28T06:23:54.953Z,922.05
2017-02-28T06:25:09.444Z,922.04
2017-02-28T06:26:23.274Z,922.04
2017-02-28T06:27:37.721Z,922.02
2017-02-28T06:28:52.181Z,922
2017-02-28T06:30:06.632Z,921.97
2017-02-28T06:31:20.425Z,921.94
2017-02-28T06:32:34.913Z,921.97
2017-02-28T06:33:49.380Z,921.93
2017-02-28T06:35:03.857Z,921.94
2017-02-28T06:36:18.333Z,921.95
2017-02-28T06:37:32.132Z,921.9
2017-02-28T06:38:45.969Z,921.86
2017-02-28T06:40:00.442Z,921.86
2017-02-28T06:41:14.893Z,921.92
2017-02-28T06:42:29.339Z,921.9
2017-02-28T06:43:43.859Z,921.89
2017-02-28T06:44:58.311Z,921.88
2017-02-28T06:46:12.153Z,921.91
2017-02-28T06:47:25.972Z,921.89
2017-02-28T06:48:40.445Z,921.9
2017-02-28T06:49:54.274Z,921.9
2017-02-28T06:51:08.723Z,921.84
2017-02-28T06:52:22.545Z,921.84
2017-02-28T06:53:36.346Z,921.82
2017-02-28T06:54:50.768Z,921.8
2017-02-28T06:56:05.286Z,921.83
2017-02-28T06:57:19.095Z,921.81
2017-02-28T06:58:33.578Z,921.81
2017-02-28T06:59:48.039Z,921.8
2017-02-28T07:01:02.479Z,921.79
2017-02-28T07:02:15.705Z,921.8
2017-02-28T07:03:30.144Z,921.78
2017-02-28T07:04:43.933Z,921.84
2017-02-28T07:05:58.410Z,921.87
2017-02-28T07:07:12.889Z,921.89
2017-02-28T07:08:26.732Z,921.88
2017-02-28T07:09:41.184Z,921.86
2017-02-28T07:10:54.994Z,921.85
2017-02-28T07:12:09.478Z,921.85
2017-02-28T07:13:23.931Z,921.81
2017-02-28T07:14:37.749Z,921.8
2017-02-28T07:15:52.190Z,921.8
2017-02-28T07:17:06.659Z,921.77
2017-02-28T07:18:20.466Z,921.77
2017-02-28T07:19:34.920Z,921.75
2017-02-28T07:20:48.761Z,921.73
2017-02-28T07:22:03.227Z,921.74
2017-02-28T07:23:17.683Z,921.72
2017-02-28T07:24:32.188Z,921.72
2017-02-28T07:25:46.690Z,921.73
2017-02-28T07:27:01.154Z,921.72
2017-02-28T07:28:15.580Z,921.73
2017-02-28T07:29:28.748Z,921.74
2017-02-28T07:30:43.239Z,921.73
2017-02-28T07:31:57.706Z,921.74
2017-02-28T07:33:12.185Z,921.74
2017-02-28T07:34:26.656Z,921.75
2017-02-28T07:35:40.459Z,921.76
2017-02-28T07:36:54.912Z,921.77
2017-02-28T07:38:09.373Z,921.79
2017-02-28T07:39:23.239Z,921.78
2017-02-28T07:40:37.698Z,921.81
2017-02-28T07:41:52.190Z,921.8
2017-02-28T07:43:06.670Z,921.82
2017-02-28T07:44:20.495Z,921.8
2017-02-28T07:45:34.295Z,921.8
2017-02-28T07:46:48.762Z,921.8
2017-02-28T07:48:03.204Z,921.82
2017-02-28T07:49:17.693Z,921.79
2017-02-28T07:50:32.156Z,921.82
2017-02-28T07:51:45.942Z,921.79
2017-02-28T07:53:00.387Z,921.8
2017-02-28T07:54:14.849Z,921.78
2017-02-28T07:55:28.672Z,921.79
2017-02-28T07:56:43.161Z,921.81
2017-02-28T07:57:57.621Z,921.83
2017-02-28T07:59:12.081Z,921.84
2017-02-28T08:00:25.870Z,921.83
2017-02-28T08:01:39.679Z,921.85
2017-02-28T08:02:54.173Z,921.84
2017-02-28T08:04:08.633Z,921.82
2017-02-28T08:05:23.128Z,921.83
2017-02-28T08:06:36.932Z,921.85
2017-02-28T08:07:51.381Z,921.85
2017-02-28T08:09:05.827Z,921.82
2017-02-28T08:10:20.310Z,921.85
2017-02-28T08:11:34.821Z,921.87
2017-02-28T08:12:49.256Z,921.87
2017-02-28T08:14:03.745Z,921.9
2017-02-28T08:15:18.190Z,921.89
2017-02-28T08:16:32.663Z,921.88
2017-02-28T08:17:45.812Z,921.9
2017-02-28T08:19:00.245Z,921.91
2017-02-28T08:20:14.695Z,921.93
2017-02-28T08:21:28.522Z,921.97
2017-02-28T08:22:42.346Z,921.96
2017-02-28T08:23:56.776Z,921.97
2017-02-28T08:25:11.224Z,921.94
2017-02-28T08:26:25.663Z,922.03
2017-02-28T08:27:39.507Z,922.02
2017-02-28T08:28:53.361Z,921.99
2017-02-28T08:30:07.844Z,922.01
2017-02-28T08:31:22.331Z,922.04
2017-02-28T08:32:36.808Z,922.1
2017-02-28T08:33:50.610Z,922.06
2017-02-28T08:35:05.055Z,922.04
2017-02-28T08:36:19.484Z,922.01
2017-02-28T08:37:32.020Z,922
2017-02-28T08:38:46.466Z,922.02
2017-02-28T08:40:00.909Z,921.99
2017-02-28T08:41:15.395Z,922
2017-02-28T08:42:29.834Z,922.01
2017-02-28T08:43:44.281Z,922.08
2017-02-28T08:44:58.731Z,922.05
2017-02-28T08:46:12.558Z,922.05
2017-02-28T08:47:26.383Z,922
2017-02-28T08:48:40.211Z,922.05
2017-02-28T08:49:54.681Z,922.02
2017-02-28T08:51:09.159Z,922.06
2017-02-28T08:52:23.612Z,922.06
2017-02-28T08:53:38.055Z,922.03
2017-02-28T08:54:52.490Z,922.05
2017-02-28T08:56:06.926Z,922.02
2017-02-28T08:57:21.392Z,922.04
2017-02-28T08:58:35.844Z,922.05
2017-02-28T08:59:50.310Z,922.01
2017-02-28T09:01:04.759Z,922.01
2017-02-28T09:02:19.200Z,921.98
2017-02-28T09:03:33.013Z,921.96
2017-02-28T09:04:46.826Z,921.94
2017-02-28T09:06:00.624Z,921.98
2017-02-28T09:07:15.046Z,922
2017-02-28T09:08:28.837Z,922.03
2017-02-28T09:09:43.270Z,922.04
2017-02-28T09:10:57.736Z,922.05
2017-02-28T09:12:12.181Z,922.09
2017-02-28T09:13:26.673Z,922.08
2017-02-28T09:14:40.488Z,922.17
2017-02-28T09:15:55.047Z,922.16
2017-02-28T09:17:08.876Z,922.11
2017-02-28T09:18:23.336Z,922.14
2017-02-28T09:19:37.803Z,922.17
2017-02-28T09:20:52.261Z,922.21
2017-02-28T09:22:06.079Z,922.24
2017-02-28T09:23:20.524Z,922.24
2017-02-28T09:24:34.982Z,922.25
2017-02-28T09:25:49.462Z,922.26
2017-02-28T09:27:03.911Z,922.27
2017-02-28T09:28:17.727Z,922.21
2017-02-28T09:29:32.189Z,922.24
2017-02-28T09:30:46.641Z,922.25
2017-02-28T09:32:01.081Z,922.27
2017-02-28T09:33:15.552Z,922.26
2017-02-28T09:34:28.718Z,922.28
2017-02-28T09:35:42.575Z,922.25
2017-02-28T09:36:57.008Z,922.29
2017-02-28T09:38:10.795Z,922.28
2017-02-28T09:39:25.241Z,922.28
2017-02-28T09:40:39.065Z,922.29
2017-02-28T09:41:53.510Z,922.29
2017-02-28T09:43:07.978Z,922.31
2017-02-28T09:44:21.205Z,922.29
2017-02-28T09:45:35.668Z,922.34
2017-02-28T09:46:49.522Z,922.34
2017-02-28T09:48:03.353Z,922.34
2017-02-28T09:49:17.832Z,922.35
2017-02-28T09:50:32.273Z,922.3
2017-02-28T09:51:46.100Z,922.36
2017-02-28T09:52:59.900Z,922.35
2017-02-28T09:54:14.368Z,922.34
2017-02-28T09:55:28.166Z,922.31
2017-02-28T09:56:42.594Z,922.31
2017-02-28T09:57:56.415Z,922.29
2017-02-28T09:59:10.907Z,922.34
2017-02-28T10:00:25.338Z,922.34
2017-02-28T10:01:39.226Z,922.4
2017-02-28T10:02:53.735Z,922.45
2017-02-28T10:04:08.159Z,922.44
2017-02-28T10:05:22.666Z,922.42
2017-02-28T10:06:36.491Z,922.42
2017-02-28T10:07:50.349Z,922.44
2017-02-28T10:09:04.784Z,922.45
2017-02-28T10:10:19.253Z,922.5
2017-02-28T10:11:33.748Z,922.5
2017-02-28T10:12:48.196Z,922.54
2017-02-28T10:14:02.677Z,922.58
2017-02-28T10:15:17.127Z,922.57
2017-02-28T10:16:31.559Z,922.57
2017-02-28T10:17:46.020Z,922.6
2017-02-28T10:19:00.513Z,922.59
2017-02-28T10:20:14.943Z,922.65
2017-02-28T10:21:28.785Z,922.65
2017-02-28T10:22:42.636Z,922.67
2017-02-28T10:23:57.143Z,922.72
2017-02-28T10:25:11.583Z,922.74
2017-02-28T10:26:26.068Z,922.71
2017-02-28T10:27:39.865Z,922.76
2017-02-28T10:28:54.315Z,922.78
2017-02-28T10:30:08.778Z,922.8
2017-02-28T10:31:23.255Z,922.77
2017-02-28T10:32:37.730Z,922.83
2017-02-28T10:33:52.185Z,922.86
2017-02-28T10:35:05.998Z,922.89
2017-02-28T10:36:20.456Z,922.92
2017-02-28T10:37:34.890Z,922.98
2017-02-28T10:38:48.744Z,922.96
2017-02-28T10:40:03.247Z,923
2017-02-28T10:41:17.079Z,922.97
2017-02-28T10:42:31.553Z,922.99
2017-02-28T10:43:46.012Z,923.02
2017-02-28T10:44:59.829Z,923.06
2017-02-28T10:46:13.637Z,922.94
2017-02-28T10:47:28.114Z,923.05
2017-02-28T10:48:42.585Z,923.07
2017-02-28T10:49:57.063Z,923.03
2017-02-28T10:51:10.864Z,923.07
2017-02-28T10:52:25.293Z,923.05
2017-02-28T10:53:39.752Z,923.09
2017-02-28T10:54:54.192Z,923.08
2017-02-28T10:56:08.650Z,923.03
2017-02-28T10:57:23.130Z,923.09
2017-02-28T10:58:37.573Z,923.03
2017-02-28T10:59:51.368Z,923.09
2017-02-28T11:01:05.846Z,923.12
2017-02-28T11:02:19.016Z,923.08
2017-02-28T11:03:33.510Z,923.16
2017-02-28T11:04:46.682Z,923.16
2017-02-28T11:06:00.468Z,923.16
2017-02-28T11:07:15.238Z,923.12
2017-02-28T11:08:29.704Z,923.14
2017-02-28T11:09:43.562Z,923.16
2017-02-28T11:10:58.027Z,923.12
2017-02-28T11:12:12.523Z,923.07
2017-02-28T11:13:26.988Z,923.11
2017-02-28T11:14:40.831Z,923.14
2017-02-28T11:15:55.275Z,923.14
2017-02-28T11:17:09.070Z,923.09
2017-02-28T11:18:22.884Z,923.07
2017-02-28T11:19:37.381Z,923.12
2017-02-28T11:20:51.836Z,923.06
2017-02-28T11:22:06.292Z,923.06
2017-02-28T11:23:20.797Z,923.1
2017-02-28T11:24:34.632Z,923.07
2017-02-28T11:25:49.111Z,923.07
2017-02-28T11:27:03.600Z,923.08
2017-02-28T11:28:16.744Z,923.09
2017-02-28T11:29:31.223Z,923.03
2017-02-28T11:30:45.686Z,922.99
2017-02-28T11:32:00.163Z,922.99
2017-02-28T11:33:13.974Z,923.05
2017-02-28T11:34:28.438Z,923.05
2017-02-28T11:35:42.883Z,923.04
2017-02-28T11:36:57.352Z,923.07
2017-02-28T11:38:11.829Z,923.07
2017-02-28T11:39:26.315Z,923.07
2017-02-28T11:40:40.806Z,923.05
2017-02-28T11:41:54.620Z,923.01
2017-02-28T11:43:09.097Z,923.08
2017-02-28T11:44:22.960Z,923.07
2017-02-28T11:45:36.826Z,923.06
2017-02-28T11:46:50.667Z,923.15
2017-02-28T11:48:05.121Z,923.14
2017-02-28T11:49:19.577Z,923.11
2017-02-28T11:50:33.373Z,923.17
2017-02-28T11:51:47.814Z,923.15
2017-02-28T11:53:02.299Z,923.08
2017-02-28T11:54:16.766Z,923.05
2017-02-28T11:55:31.275Z,923.11
2017-02-28T11:56:45.083Z,923.11
2017-02-28T11:57:59.560Z,923.12
2017-02-28T11:59:14.038Z,923.09
2017-02-28T12:00:28.501Z,923.08
2017-02-28T12:01:42.980Z,923.06
2017-02-28T12:02:57.494Z,923.01
2017-02-28T12:04:11.933Z,923.05
2017-02-28T12:05:26.384Z,923.02
2017-02-28T12:06:40.837Z,922.99
2017-02-28T12:07:54.667Z,923.01
2017-02-28T12:09:08.507Z,923.1
2017-02-28T12:10:23.016Z,923.03
2017-02-28T12:11:37.496Z,923.08
2017-02-28T12:12:51.951Z,923.12
2017-02-28T12:14:05.803Z,923.09
2017-02-28T12:15:19.625Z,923.1
2017-02-28T12:16:34.116Z,923.14
2017-02-28T12:17:47.916Z,923.15
2017-02-28T12:19:01.727Z,923.14
2017-02-28T12:20:16.208Z,923.15
2017-02-28T12:21:30.716Z,923.17
2017-02-28T12:22:45.181Z,923.13
2017-02-28T12:23:59.679Z,923.13
2017-02-28T12:25:13.486Z,923.04
2017-02-28T12:26:27.292Z,923.08
2017-02-28T12:27:41.777Z,923.13
2017-02-28T12:28:56.235Z,923.06
2017-02-28T12:30:10.041Z,923.11
2017-02-28T12:31:24.541Z,923.09
2017-02-28T12:32:39.010Z,923.05
2017-02-28T12:33:53.489Z,923.08
2017-02-28T12:35:07.969Z,922.97
2017-02-28T12:36:22.420Z,922.97
2017-02-28T12:37:36.883Z,922.98
2017-02-28T12:38:51.354Z,923.01
2017-02-28T12:40:05.810Z,923.05
2017-02-28T12:41:20.267Z,923.03
2017-02-28T12:42:34.753Z,923.09
2017-02-28T12:43:49.203Z,922.99
2017-02-28T12:45:03.662Z,922.93
2017-02-28T12:46:17.475Z,922.95
2017-02-28T12:47:31.942Z,922.99
2017-02-28T12:48:46.406Z,922.91
2017-02-28T12:50:00.872Z,922.94
2017-02-28T12:51:15.380Z,922.89
2017-02-28T12:52:29.181Z,922.93
2017-02-28T12:53:43.651Z,922.82
2017-02-28T12:54:58.128Z,922.8
2017-02-28T12:56:11.930Z,922.89
2017-02-28T12:57:26.390Z,922.88
2017-02-28T12:58:40.181Z,922.9
2017-02-28T12:59:54.650Z,922.88
2017-02-28T13:01:09.136Z,922.76
2017-02-28T13:02:22.944Z,922.8
2017-02-28T13:03:36.736Z,922.82
2017-02-28T13:04:51.198Z,922.86
2017-02-28T13:06:05.032Z,922.84
2017-02-28T13:07:19.493Z,922.83
2017-02-28T13:08:33.942Z,922.81
2017-02-28T13:09:47.748Z,922.75
2017-02-28T13:11:02.223Z,922.88
2017-02-28T13:12:16.697Z,922.86
2017-02-28T13:13:31.175Z,922.84
2017-02-28T13:14:45.668Z,922.82
2017-02-28T13:16:00.132Z,922.86
2017-02-28T13:17:13.939Z,922.7
2017-02-28T13:18:28.401Z,922.76
2017-02-28T13:19:41.599Z,922.68
2017-02-28T13:20:56.054Z,922.72
2017-02-28T13:22:10.508Z,922.82
2017-02-28T13:23:24.961Z,922.68
2017-02-28T13:24:39.428Z,922.67
2017-02-28T13:25:53.908Z,922.58
2017-02-28T13:27:07.083Z,922.68
2017-02-28T13:28:21.519Z,922.58
2017-02-28T13:29:35.982Z,922.66
2017-02-28T13:30:50.461Z,922.66
2017-02-28T13:32:04.920Z,922.57
2017-02-28T13:33:18.737Z,922.58
2017-02-28T13:34:32.572Z,922.55
2017-02-28T13:35:47.055Z,922.59
2017-02-28T13:37:01.508Z,922.53
2017-02-28T13:38:15.995Z,922.55
2017-02-28T13:39:30.433Z,922.56
2017-02-28T13:40:44.897Z,922.5
2017-02-28T13:41:58.730Z,922.47
2017-02-28T13:43:13.218Z,922.54
2017-02-28T13:44:27.677Z,922.52
2017-02-28T13:45:41.507Z,922.5
2017-02-28T13:46:55.336Z,922.48
2017-02-28T13:48:09.838Z,922.47
2017-02-28T13:49:24.300Z,922.46
2017-02-28T13:50:38.101Z,922.45
2017-02-28T13:51:52.581Z,922.37
2017-02-28T13:53:07.023Z,922.44
2017-02-28T13:54:20.836Z,922.48
2017-02-28T13:55:34.669Z,922.4
2017-02-28T13:56:49.154Z,922.45
2017-02-28T13:58:03.619Z,922.48
2017-02-28T13:59:17.438Z,922.5
2017-02-28T14:00:31.893Z,922.47
2017-02-28T14:01:46.365Z,922.42
2017-02-28T14:03:00.803Z,922.46
2017-02-28T14:04:15.268Z,922.41
2017-02-28T14:05:29.141Z,922.46
2017-02-28T14:06:43.622Z,922.33
2017-02-28T14:07:58.092Z,922.36
2017-02-28T14:09:12.564Z,922.39
2017-02-28T14:10:26.985Z,922.39
2017-02-28T14:11:41.458Z,922.37
2017-02-28T14:12:55.920Z,922.33
2017-02-28T14:14:10.396Z,922.34
2017-02-28T14:15:24.228Z,922.29
2017-02-28T14:16:38.684Z,922.34
2017-02-28T14:17:53.193Z,922.23
2017-02-28T14:19:06.977Z,922.3
2017-02-28T14:20:21.447Z,922.34
2017-02-28T14:21:35.932Z,922.29
2017-02-28T14:22:50.441Z,922.25
2017-02-28T14:24:04.293Z,922.19
2017-02-28T14:25:18.778Z,922.24
2017-02-28T14:26:33.245Z,922.23
2017-02-28T14:27:47.751Z,922.26
2017-02-28T14:29:01.592Z,922.24
2017-02-28T14:30:16.046Z,922.25
2017-02-28T14:31:29.883Z,922.19
2017-02-28T14:32:44.357Z,922.15
2017-02-28T14:33:58.172Z,922.24
2017-02-28T14:35:12.639Z,922.14
2017-02-28T14:36:27.116Z,922.15
2017-02-28T14:37:41.643Z,922.27
2017-02-28T14:38:56.122Z,922.22
2017-02-28T14:40:10.571Z,922.11
2017-02-28T14:41:25.019Z,922.1
2017-02-28T14:42:38.186Z,922.1
2017-02-28T14:43:52.672Z,922.09
2017-02-28T14:45:06.494Z,922.09
2017-02-28T14:46:21.018Z,922.04
2017-02-28T14:47:35.488Z,922.05
2017-02-28T14:48:49.281Z,921.94
2017-02-28T14:50:03.754Z,921.96
2017-02-28T14:51:17.607Z,921.94
2017-02-28T14:52:32.072Z,921.95
2017-02-28T14:53:46.525Z,921.93
2017-02-28T14:55:00.368Z,921.94
2017-02-28T14:56:14.853Z,921.9
2017-02-28T14:57:29.329Z,921.88
2017-02-28T14:58:43.812Z,921.88
2017-02-28T14:59:58.270Z,921.88
2017-02-28T15:01:12.109Z,921.85
2017-02-28T15:02:26.555Z,921.77
2017-02-28T15:03:41.028Z,921.81
2017-02-28T15:04:55.482Z,921.78
2017-02-28T15:06:09.954Z,921.8
2017-02-28T15:07:23.756Z,921.7
2017-02-28T15:08:38.237Z,921.78
2017-02-28T15:09:52.702Z,921.74
2017-02-28T15:11:07.178Z,921.69
2017-02-28T15:12:21.675Z,921.71
2017-02-28T15:13:36.148Z,921.64
2017-02-28T15:14:50.695Z,921.63
2017-02-28T15:16:05.160Z,921.64
2017-02-28T15:17:19.613Z,921.65
2017-02-28T15:18:33.471Z,921.69
2017-02-28T15:19:47.310Z,921.63
2017-02-28T15:21:01.801Z,921.59
2017-02-28T15:22:15.660Z,921.58
2017-02-28T15:23:30.104Z,921.61
2017-02-28T15:24:43.922Z,921.57
2017-02-28T15:25:58.397Z,921.55
2017-02-28T15:27:12.851Z,921.49
2017-02-28T15:28:27.346Z,921.49
2017-02-28T15:29:41.806Z,921.48
2017-02-28T15:30:56.261Z,921.46